Time,TemperatureF,DewpointF,PressureIn,WindDirection,WindDirectionDegrees,WindSpeedMPH,WindSpeedGustMPH,Humidity,HourlyPrecipIn,Conditions,Clouds,dailyrainin,SolarRadiationWatts/m^2,SoftwareType,DateUTC
2013-07-07 00:00:00,72.0,58.0,-100.00,SSW,202,3.0,-999.0,63,-99.99,,,-99.99,0.000000,,2013-07-07 04:00:00,
2013-07-07 00:41:00,72.0,58.0,-100.00,SSW,202,3.0,-999.0,63,-99.99,,,-99.99,0.000000,,2013-07-07 04:41:00,
2013-07-07 00:51:00,72.0,58.0,-100.00,SSW,202,3.0,-999.0,63,-99.99,,,-99.99,0.000000,,2013-07-07 04:51:00,
2013-07-07 01:00:00,72.0,57.0,-100.00,SW,225,4.0,-999.0,60,-99.99,,,-99.99,0.000000,,2013-07-07 05:00:00,
2013-07-07 01:32:00,72.0,57.0,-100.00,SW,225,4.0,-999.0,60,-99.99,,,-99.99,0.000000,,2013-07-07 05:32:00,
2013-07-07 01:41:00,72.0,57.0,-100.00,SW,225,4.0,-999.0,60,-99.99,,,-99.99,0.000000,,2013-07-07 05:41:00,
2013-07-07 01:51:00,72.0,57.0,-100.00,SW,225,4.0,-999.0,60,-99.99,,,-99.99,0.000000,,2013-07-07 05:51:00,
2013-07-07 02:00:00,70.0,58.0,-100.00,SW,225,4.0,-999.0,65,-99.99,,,-99.99,0.000000,,2013-07-07 06:00:00,
2013-07-07 02:43:00,70.0,58.0,-100.00,SW,225,4.0,-999.0,65,-99.99,,,-99.99,0.000000,,2013-07-07 06:43:00,
2013-07-07 02:52:00,70.0,58.0,-100.00,SW,225,4.0,-999.0,65,-99.99,,,-99.99,0.000000,,2013-07-07 06:52:00,
2013-07-07 03:00:00,70.0,59.0,-100.00,SW,225,4.0,-999.0,68,-99.99,,,-99.99,0.000000,,2013-07-07 07:00:00,
2013-07-07 03:44:00,70.0,59.0,-100.00,SW,225,4.0,-999.0,68,-99.99,,,-99.99,0.000000,,2013-07-07 07:44:00,
2013-07-07 03:53:00,70.0,59.0,-100.00,SW,225,4.0,-999.0,68,-99.99,,,-99.99,0.000000,,2013-07-07 07:53:00,
2013-07-07 04:00:00,69.0,61.0,-100.00,SW,225,2.0,-999.0,75,-99.99,,,-99.99,0.000000,,2013-07-07 08:00:00,
2013-07-07 04:44:00,69.0,61.0,-100.00,SW,225,2.0,-999.0,75,-99.99,,,-99.99,0.000000,,2013-07-07 08:44:00,
2013-07-07 04:53:00,69.0,61.0,-100.00,SW,225,2.0,-999.0,75,-99.99,,,-99.99,0.000000,,2013-07-07 08:53:00,
2013-07-07 05:00:00,68.0,62.0,-100.00,SSW,202,2.0,-999.0,79,-99.99,,,-99.99,0.000000,,2013-07-07 09:00:00,
2013-07-07 05:43:00,68.0,62.0,-100.00,SSW,202,2.0,-999.0,79,-99.99,,,-99.99,0.000000,,2013-07-07 09:43:00,
2013-07-07 05:53:00,68.0,62.0,-100.00,SSW,202,2.0,-999.0,79,-99.99,,,-99.99,0.000000,,2013-07-07 09:53:00,
2013-07-07 06:00:00,68.0,62.0,-100.00,South,180,1.0,-999.0,80,-99.99,,,-99.99,0.000000,,2013-07-07 10:00:00,
2013-07-07 06:32:00,68.0,62.0,-100.00,South,180,1.0,-999.0,80,-99.99,,,-99.99,0.000000,,2013-07-07 10:32:00,
2013-07-07 06:43:00,68.0,62.0,-100.00,South,180,1.0,-999.0,80,-99.99,,,-99.99,0.000000,,2013-07-07 10:43:00,
2013-07-07 06:52:00,68.0,62.0,-100.00,South,180,1.0,-999.0,80,-99.99,,,-99.99,0.000000,,2013-07-07 10:52:00,
2013-07-07 07:00:00,69.0,62.0,-100.00,SSW,202,2.0,-999.0,79,-99.99,,,-99.99,23.200001,,2013-07-07 11:00:00,
2013-07-07 07:43:00,69.0,62.0,-100.00,SSW,202,2.0,-999.0,79,-99.99,,,-99.99,23.200001,,2013-07-07 11:43:00,
2013-07-07 07:53:00,69.0,62.0,-100.00,SSW,202,2.0,-999.0,79,-99.99,,,-99.99,23.200001,,2013-07-07 11:53:00,
2013-07-07 08:00:00,71.0,64.0,-100.00,SSW,202,3.0,-999.0,77,-99.99,,,-99.99,128.759995,,2013-07-07 12:00:00,
2013-07-07 08:43:00,71.0,64.0,-100.00,SSW,202,3.0,-999.0,77,-99.99,,,-99.99,128.759995,,2013-07-07 12:43:00,
2013-07-07 08:52:00,71.0,64.0,-100.00,SSW,202,3.0,-999.0,77,-99.99,,,-99.99,128.759995,,2013-07-07 12:52:00,
2013-07-07 09:00:00,74.0,64.0,-100.00,SW,225,5.0,-999.0,72,-99.99,,,-99.99,303.920013,,2013-07-07 13:00:00,
2013-07-07 09:43:00,74.0,64.0,-100.00,SW,225,5.0,-999.0,72,-99.99,,,-99.99,303.920013,,2013-07-07 13:43:00,
2013-07-07 09:52:00,74.0,64.0,-100.00,SW,225,5.0,-999.0,72,-99.99,,,-99.99,303.920013,,2013-07-07 13:52:00,
2013-07-07 10:00:00,74.0,64.0,-100.00,SW,225,4.0,-999.0,72,-99.99,,,-99.99,229.679993,,2013-07-07 14:00:00,
2013-07-07 10:43:00,74.0,64.0,-100.00,SW,225,4.0,-999.0,72,-99.99,,,-99.99,229.679993,,2013-07-07 14:43:00,
2013-07-07 10:53:00,74.0,64.0,-100.00,SW,225,4.0,-999.0,72,-99.99,,,-99.99,229.679993,,2013-07-07 14:53:00,
2013-07-07 11:00:00,76.0,64.0,-100.00,SW,225,6.0,-999.0,67,0.01,,,-99.99,503.440002,,2013-07-07 15:00:00,
2013-07-07 11:43:00,76.0,64.0,-100.00,SW,225,6.0,-999.0,67,0.01,,,-99.99,503.440002,,2013-07-07 15:43:00,
2013-07-07 11:52:00,76.0,64.0,-100.00,SW,225,6.0,-999.0,67,0.01,,,-99.99,503.440002,,2013-07-07 15:52:00,
2013-07-07 12:00:00,78.0,64.0,-100.00,SW,225,5.0,-999.0,63,-99.99,,,-99.99,694.840027,,2013-07-07 16:00:00,
2013-07-07 12:43:00,78.0,64.0,-100.00,SW,225,5.0,-999.0,63,-99.99,,,-99.99,694.840027,,2013-07-07 16:43:00,
2013-07-07 12:53:00,78.0,64.0,-100.00,SW,225,5.0,-999.0,63,-99.99,,,-99.99,694.840027,,2013-07-07 16:53:00,
2013-07-07 13:00:00,81.0,64.0,-100.00,WSW,247,4.0,-999.0,57,-99.99,,,-99.99,752.840027,,2013-07-07 17:00:00,
2013-07-07 13:43:00,81.0,64.0,-100.00,WSW,247,4.0,-999.0,57,-99.99,,,-99.99,752.840027,,2013-07-07 17:43:00,
2013-07-07 13:53:00,81.0,64.0,-100.00,WSW,247,4.0,-999.0,57,-99.99,,,-99.99,752.840027,,2013-07-07 17:53:00,
2013-07-07 14:00:00,75.0,64.0,-100.00,WSW,247,4.0,-999.0,69,-99.99,,,-99.99,146.160004,,2013-07-07 18:00:00,
2013-07-07 14:43:00,75.0,64.0,-100.00,WSW,247,4.0,-999.0,69,-99.99,,,-99.99,146.160004,,2013-07-07 18:43:00,
2013-07-07 14:53:00,75.0,64.0,-100.00,WSW,247,4.0,-999.0,69,-99.99,,,-99.99,146.160004,,2013-07-07 18:53:00,
2013-07-07 15:00:00,74.0,64.0,-100.00,WSW,247,4.0,-999.0,71,-99.99,,,-99.99,319.000000,,2013-07-07 19:00:00,
2013-07-07 15:43:00,74.0,64.0,-100.00,WSW,247,4.0,-999.0,71,-99.99,,,-99.99,319.000000,,2013-07-07 19:43:00,
2013-07-07 15:54:00,74.0,64.0,-100.00,WSW,247,4.0,-999.0,71,-99.99,,,-99.99,319.000000,,2013-07-07 19:54:00,
2013-07-07 16:00:00,73.0,65.0,-100.00,West,270,5.0,-999.0,75,0.01,,,-99.99,475.600006,,2013-07-07 20:00:00,
2013-07-07 16:42:00,73.0,65.0,-100.00,West,270,5.0,-999.0,75,0.01,,,-99.99,475.600006,,2013-07-07 20:42:00,
2013-07-07 16:53:00,73.0,65.0,-100.00,West,270,5.0,-999.0,75,0.01,,,-99.99,475.600006,,2013-07-07 20:53:00,
2013-07-07 17:00:00,74.0,65.0,-100.00,WSW,247,6.0,-999.0,74,0.01,,,-99.99,679.760010,,2013-07-07 21:00:00,
2013-07-07 17:44:00,74.0,65.0,-100.00,WSW,247,6.0,-999.0,74,0.01,,,-99.99,679.760010,,2013-07-07 21:44:00,
2013-07-07 17:53:00,74.0,65.0,-100.00,WSW,247,6.0,-999.0,74,0.01,,,-99.99,679.760010,,2013-07-07 21:53:00,
2013-07-07 18:00:00,72.0,65.0,-100.00,West,270,5.0,-999.0,78,-99.99,,,-99.99,337.559998,,2013-07-07 22:00:00,
2013-07-07 18:34:00,72.0,65.0,-100.00,West,270,5.0,-999.0,78,-99.99,,,-99.99,337.559998,,2013-07-07 22:34:00,
2013-07-07 18:44:00,72.0,65.0,-100.00,West,270,5.0,-999.0,78,-99.99,,,-99.99,337.559998,,2013-07-07 22:44:00,
2013-07-07 18:54:00,72.0,65.0,-100.00,West,270,5.0,-999.0,78,-99.99,,,-99.99,337.559998,,2013-07-07 22:54:00,
2013-07-07 19:00:00,71.0,65.0,-100.00,West,270,3.0,-999.0,80,-99.99,,,-99.99,140.360001,,2013-07-07 23:00:00,
2013-07-07 19:33:00,71.0,65.0,-100.00,West,270,3.0,-999.0,80,-99.99,,,-99.99,140.360001,,2013-07-07 23:33:00,
2013-07-07 19:43:00,71.0,65.0,-100.00,West,270,3.0,-999.0,80,-99.99,,,-99.99,140.360001,,2013-07-07 23:43:00,
2013-07-07 19:53:00,71.0,65.0,-100.00,West,270,3.0,-999.0,80,-99.99,,,-99.99,140.360001,,2013-07-07 23:53:00,
2013-07-07 20:00:00,72.0,64.0,-100.00,WSW,247,4.0,-999.0,76,-99.99,,,-99.99,134.559998,,2013-07-08 00:00:00,
2013-07-07 20:43:00,72.0,64.0,-100.00,WSW,247,4.0,-999.0,76,-99.99,,,-99.99,134.559998,,2013-07-08 00:43:00,
2013-07-07 20:53:00,72.0,64.0,-100.00,WSW,247,4.0,-999.0,76,-99.99,,,-99.99,134.559998,,2013-07-08 00:53:00,
2013-07-07 21:00:00,74.0,63.0,-100.00,SSW,202,3.0,-999.0,69,-99.99,,,-99.99,25.520000,,2013-07-08 01:00:00,
2013-07-07 21:43:00,74.0,63.0,-100.00,SSW,202,3.0,-999.0,69,-99.99,,,-99.99,25.520000,,2013-07-08 01:43:00,
2013-07-07 21:53:00,74.0,63.0,-100.00,SSW,202,3.0,-999.0,69,-99.99,,,-99.99,25.520000,,2013-07-08 01:53:00,
2013-07-07 22:00:00,73.0,64.0,-100.00,South,180,1.0,-999.0,72,-99.99,,,-99.99,3.480000,,2013-07-08 02:00:00,
2013-07-07 22:43:00,73.0,64.0,-100.00,South,180,1.0,-999.0,72,-99.99,,,-99.99,3.480000,,2013-07-08 02:43:00,
2013-07-07 22:52:00,73.0,64.0,-100.00,South,180,1.0,-999.0,72,-99.99,,,-99.99,3.480000,,2013-07-08 02:52:00,
2013-07-07 23:00:00,68.0,64.0,-100.00,South,180,0.0,-999.0,88,-99.99,,,-99.99,0.000000,,2013-07-08 03:00:00,
2013-07-07 23:43:00,68.0,64.0,-100.00,South,180,0.0,-999.0,88,-99.99,,,-99.99,0.000000,,2013-07-08 03:43:00,
2013-07-07 23:52:00,68.0,64.0,-100.00,South,180,0.0,-999.0,88,-99.99,,,-99.99,0.000000,,2013-07-08 03:52:00,